Time;durP1;ratioP1;P1;durP2;ratioP2;P2;SDS_P1;SDS_P2;PMS_P1;PMS_P2;Temp;Humidity;BMP_temperature;BMP_pressure;BME280_temperature;BME280_humidity;BME280_pressure;Samples;Min_cycle;Max_cycle;Signal;HPM_P1;HPM_P2
2022/11/18 00:01:12;;;;;;;27.50;17.20;;;;;;;9.63;89.91;96040.28;5087369;28;20276;-74
2022/11/18 00:03:40;;;;;;;25.60;16.70;;;;;;;9.66;89.66;96042.72;5087836;28;20234;-73
2022/11/18 00:06:11;;;;;;;27.90;17.20;;;;;;;9.73;88.88;96036.25;5087715;28;20275;-73
2022/11/18 00:08:38;;;;;;;26.23;17.07;;;;;;;9.76;88.35;96041.25;5088494;28;20265;-73
2022/11/18 00:14:17;;;;;;;25.73;16.53;;;;;;;9.75;87.67;96034.41;5085552;28;20227;-73
2022/11/18 00:14:18;;;;;;;28.37;17.53;;;;;;;9.58;87.10;96041.47;5088292;28;20193;-73
2022/11/18 00:16:56;;;;;;;30.37;17.57;;;;;;;9.55;88.11;96047.66;5087735;28;20220;-74
2022/11/18 00:19:26;;;;;;;28.40;19.07;;;;;;;9.41;87.83;96029.53;5086836;28;20188;-73
2022/11/18 00:21:53;;;;;;;24.80;16.70;;;;;;;9.48;87.27;96033.41;5088233;28;20265;-73
2022/11/18 00:24:21;;;;;;;24.50;16.33;;;;;;;9.27;87.35;96021.75;5085171;28;20690;-73
2022/11/18 00:26:48;;;;;;;25.80;16.83;;;;;;;9.31;88.00;96028.38;5088126;28;20573;-73
2022/11/18 00:29:16;;;;;;;25.03;15.97;;;;;;;9.18;88.67;96035.16;5102067;28;20628;-73
2022/11/18 00:31:43;;;;;;;25.30;16.00;;;;;;;9.25;88.54;96036.50;5087742;28;20275;-74
2022/11/18 00:34:12;;;;;;;23.00;15.10;;;;;;;9.24;88.67;96037.41;5086066;28;20193;-73
2022/11/18 00:36:41;;;;;;;25.10;16.27;;;;;;;9.19;87.90;96017.91;5086667;28;20181;-74
2022/11/18 00:39:13;;;;;;;22.23;14.90;;;;;;;9.25;87.63;96039.06;5086019;28;20211;-74
2022/11/18 00:44:26;;;;;;;29.20;17.60;;;;;;;9.38;86.51;96029.69;5087845;28;20181;-75
2022/11/18 00:46:55;;;;;;;26.47;16.83;;;;;;;9.01;88.38;96019.75;5086978;28;20222;-74
2022/11/18 00:49:22;;;;;;;22.43;14.93;;;;;;;8.98;89.81;96022.53;5085791;28;20858;-72
2022/11/18 00:51:49;;;;;;;24.03;15.87;;;;;;;8.93;89.56;96021.94;5086350;28;20196;-73
2022/11/18 00:54:16;;;;;;;27.97;17.40;;;;;;;9.02;89.71;96022.28;5086106;28;20569;-72
2022/11/18 00:56:43;;;;;;;27.27;16.70;;;;;;;9.01;88.59;96020.59;5087848;28;20188;-74
2022/11/18 00:59:10;;;;;;;24.73;16.83;;;;;;;9.14;88.02;96031.09;5086118;28;20279;-74
2022/11/18 01:01:37;;;;;;;23.67;14.97;;;;;;;9.18;87.43;96031.72;5087722;28;20199;-74
2022/11/18 01:04:04;;;;;;;25.50;15.13;;;;;;;9.19;87.27;96031.63;5086649;28;20191;-73
2022/11/18 01:06:31;;;;;;;27.30;16.70;;;;;;;9.31;86.60;96046.47;5087305;28;20184;-74
2022/11/18 01:08:58;;;;;;;24.73;15.27;;;;;;;9.16;85.71;96039.56;5087476;28;20235;-73
2022/11/18 01:14:10;;;;;;;25.87;15.50;;;;;;;8.75;85.93;96044.47;5087550;28;20695;-73
2022/11/18 01:16:37;;;;;;;25.83;16.67;;;;;;;8.66;86.85;96049.25;5085974;28;20666;-72
2022/11/18 01:19:04;;;;;;;26.17;15.90;;;;;;;8.35;86.73;96000.22;5086177;28;20667;-73
2022/11/18 01:21:31;;;;;;;21.13;13.77;;;;;;;8.45;86.63;96029.78;5085146;28;20177;-72
2022/11/18 01:23:58;;;;;;;19.50;12.73;;;;;;;8.36;86.55;96035.44;5086668;28;20282;-72
2022/11/18 01:26:25;;;;;;;25.47;13.93;;;;;;;8.34;86.48;96026.94;5102874;28;20284;-72
2022/11/18 01:28:58;;;;;;;22.30;13.13;;;;;;;8.35;85.61;96026.84;5085647;28;20255;-72
2022/11/18 01:31:25;;;;;;;20.60;13.90;;;;;;;8.36;85.40;96038.00;5087284;28;20191;-72
2022/11/18 01:33:52;;;;;;;18.90;13.43;;;;;;;8.39;87.19;96040.44;5084561;28;20181;-73
2022/11/18 01:36:22;;;;;;;24.33;15.13;;;;;;;8.34;87.98;96029.53;5087202;28;20281;-73
2022/11/18 01:38:50;;;;;;;29.20;15.50;;;;;;;8.38;86.79;96024.13;5086472;28;20241;-73
2022/11/18 01:41:19;;;;;;;21.80;15.50;;;;;;;8.43;87.07;96026.47;5086524;28;20705;-74
2022/11/18 01:43:57;;;;;;;26.30;15.13;;;;;;;8.53;89.21;96015.53;5087205;28;20209;-74
2022/11/18 01:46:26;;;;;;;22.70;14.03;;;;;;;8.72;89.10;96012.78;5085918;28;20179;-74
2022/11/18 01:48:57;;;;;;;26.03;14.70;;;;;;;8.68;89.25;96011.31;5087122;28;20233;-74
2022/11/18 01:51:50;;;;;;;21.00;14.80;;;;;;;8.55;90.11;96007.75;5088570;28;20276;-73
2022/11/18 01:54:26;;;;;;;23.33;14.90;;;;;;;8.62;90.25;96007.31;5085641;28;20198;-73
2022/11/18 01:56:58;;;;;;;25.67;14.93;;;;;;;8.54;89.85;96000.91;5091003;28;20188;-74
2022/11/18 01:59:29;;;;;;;23.37;14.90;;;;;;;8.35;91.09;96013.97;5089509;28;20191;-74
2022/11/18 02:01:59;;;;;;;27.17;15.43;;;;;;;8.02;91.42;95985.59;5089565;28;20300;-74
2022/11/18 02:04:26;;;;;;;24.37;15.63;;;;;;;8.08;92.41;96010.22;5089598;28;20188;-74
2022/11/18 02:06:54;;;;;;;24.90;15.87;;;;;;;8.11;92.55;96015.22;5106791;28;20670;-74
2022/11/18 02:09:21;;;;;;;31.07;18.37;;;;;;;8.17;90.99;96013.16;5090222;28;20223;-74
2022/11/18 02:11:55;;;;;;;26.53;16.33;;;;;;;8.11;91.33;95997.19;5089463;28;20318;-74
2022/11/18 02:14:30;;;;;;;29.70;15.73;;;;;;;8.19;89.15;96007.94;5090567;28;20192;-73
2022/11/18 02:17:22;;;;;;;25.67;16.23;;;;;;;8.30;88.73;96009.97;5088840;28;20266;-73
2022/11/18 02:20:07;;;;;;;27.40;16.07;;;;;;;8.30;89.43;96010.81;5090365;28;20188;-74
2022/11/18 02:22:52;;;;;;;21.57;13.87;;;;;;;8.13;89.24;96014.25;5090411;28;20184;-74
2022/11/18 02:26:07;;;;;;;22.90;14.20;;;;;;;8.15;89.41;96007.25;5088591;28;20191;-74
2022/11/18 02:28:55;;;;;;;21.03;12.93;;;;;;;8.07;90.42;96011.16;5076948;28;20754;-74
2022/11/18 02:31:24;;;;;;;20.73;13.30;;;;;;;8.06;90.35;96017.22;5090031;28;20695;-74
2022/11/18 02:34:05;;;;;;;24.13;14.57;;;;;;;8.11;89.68;96010.06;5087028;28;20188;-74
2022/11/18 02:36:50;;;;;;;21.67;13.43;;;;;;;8.22;89.76;96016.31;5090140;28;20202;-74
2022/11/18 02:39:49;;;;;;;23.63;13.87;;;;;;;8.21;89.23;96013.84;5089210;28;20180;-74
2022/11/18 02:42:17;;;;;;;22.33;12.53;;;;;;;8.13;88.05;95998.78;5080482;28;20201;-73
2022/11/18 02:44:50;;;;;;;16.57;11.47;;;;;;;8.04;89.06;96006.97;5088899;28;20553;-74
2022/11/18 02:47:19;;;;;;;19.90;10.57;;;;;;;7.82;88.80;96014.16;5088376;28;20790;-74
2022/11/18 02:49:52;;;;;;;19.20;11.00;;;;;;;7.80;88.14;96016.00;5089835;28;20220;-73
2022/11/18 02:52:21;;;;;;;16.50;10.93;;;;;;;7.71;88.73;96016.44;5104311;28;20196;-74
2022/11/18 02:54:50;;;;;;;20.07;11.00;;;;;;;7.70;88.61;96004.50;5089220;28;21011;-74
2022/11/18 02:57:19;;;;;;;18.60;11.43;;;;;;;7.75;89.21;95994.75;5089762;28;20191;-74
2022/11/18 02:59:47;;;;;;;16.93;11.13;;;;;;;7.68;89.43;95985.69;5088473;28;20180;-73
2022/11/18 03:02:16;;;;;;;20.40;12.60;;;;;;;7.91;89.49;96000.78;5089389;28;20190;-73
2022/11/18 03:04:46;;;;;;;19.70;11.67;;;;;;;7.79;88.09;95993.69;5086777;28;20248;-72
2022/11/18 03:07:16;;;;;;;18.47;12.13;;;;;;;7.90;88.31;96014.59;5089782;28;20194;-73
2022/11/18 03:09:47;;;;;;;22.70;13.03;;;;;;;7.86;88.89;96023.41;5088673;28;20605;-73
2022/11/18 03:12:36;;;;;;;32.87;14.83;;;;;;;7.86;87.67;96020.00;5088827;28;20193;-73
2022/11/18 03:15:23;;;;;;;29.13;13.57;;;;;;;7.83;88.23;96020.16;5089651;28;20218;-73
2022/11/18 03:18:04;;;;;;;34.67;14.50;;;;;;;7.75;89.23;96017.97;5087953;28;20235;-73
2022/11/18 03:21:01;;;;;;;55.43;13.67;;;;;;;7.63;89.39;96008.28;5089269;28;20194;-73
2022/11/18 03:23:37;;;;;;;32.37;13.40;;;;;;;7.72;90.48;96017.28;5089379;28;20195;-73
2022/11/18 03:26:11;;;;;;;34.50;12.30;;;;;;;7.74;89.34;96016.31;5087697;28;20179;-73
2022/11/18 03:29:03;;;;;;;28.30;12.20;;;;;;;7.54;88.66;96019.06;5089422;28;20186;-74
2022/11/18 03:31:52;;;;;;;23.57;11.37;;;;;;;7.37;89.49;96021.63;5088611;28;20214;-73
2022/11/18 03:34:35;;;;;;;25.40;11.93;;;;;;;7.34;89.46;96021.78;5086103;28;20198;-73
2022/11/18 03:37:06;;;;;;;17.53;10.33;;;;;;;7.29;89.40;96018.59;5089152;28;20190;-74
2022/11/18 03:39:41;;;;;;;14.73;9.50;;;;;;;7.22;90.09;96014.66;5086001;28;20289;-74
2022/11/18 03:42:26;;;;;;;21.03;9.10;;;;;;;7.04;89.94;96015.56;5088903;28;20279;-73
2022/11/18 03:45:00;;;;;;;17.00;9.37;;;;;;;7.04;91.00;96012.97;5087540;28;20182;-73
2022/11/18 03:47:38;;;;;;;28.67;8.83;;;;;;;7.01;91.45;96018.25;5087361;28;20201;-74
2022/11/18 03:50:13;;;;;;;13.47;8.47;;;;;;;6.84;92.29;96013.13;5088894;28;20215;-74
2022/11/18 03:52:41;;;;;;;17.47;9.03;;;;;;;6.84;93.05;96013.13;5087094;28;20681;-74
2022/11/18 03:55:14;;;;;;;22.07;10.10;;;;;;;6.87;94.37;96012.94;5088476;28;20264;-74
2022/11/18 03:57:50;;;;;;;16.93;9.77;;;;;;;6.95;95.96;96023.72;5088295;28;20200;-73
2022/11/18 04:00:19;;;;;;;28.57;10.30;;;;;;;6.96;95.62;96023.66;5085913;28;20220;-74
2022/11/18 04:02:49;;;;;;;30.73;11.00;;;;;;;6.86;95.56;96035.28;5088534;28;20673;-73
2022/11/18 04:05:18;;;;;;;16.97;9.83;;;;;;;6.86;95.72;96037.03;5087351;28;20288;-74
2022/11/18 04:07:52;;;;;;;18.27;9.80;;;;;;;6.94;95.28;96043.50;5088702;28;20186;-74
2022/11/18 04:10:25;;;;;;;14.80;9.60;;;;;;;6.84;95.59;96036.28;5087563;28;20214;-74
2022/11/18 04:13:23;;;;;;;14.63;9.17;;;;;;;7.05;96.18;96048.09;5087266;28;20657;-73
2022/11/18 04:15:50;;;;;;;13.90;9.97;;;;;;;6.92;95.42;96017.00;5082425;28;20191;-74
2022/11/18 04:18:17;;;;;;;15.00;10.27;;;;;;;7.11;94.96;96050.41;5086853;28;20197;-75
2022/11/18 04:20:44;;;;;;;13.10;9.77;;;;;;;7.16;95.11;96038.13;5088253;28;20199;-74
2022/11/18 04:23:11;;;;;;;13.23;9.40;;;;;;;7.23;94.52;96039.50;5087199;28;20195;-74
2022/11/18 04:25:38;;;;;;;15.63;9.93;;;;;;;7.27;93.86;96041.03;5087843;28;20182;-74
2022/11/18 04:28:05;;;;;;;13.53;9.57;;;;;;;7.29;92.26;96045.16;5086623;28;20662;-74
2022/11/18 04:30:33;;;;;;;15.30;9.90;;;;;;;7.42;91.83;96049.75;5086579;28;21154;-73
2022/11/18 04:33:00;;;;;;;17.80;10.80;;;;;;;7.42;92.18;96045.41;5088027;28;20196;-73
2022/11/18 04:35:27;;;;;;;14.23;10.73;;;;;;;7.51;91.91;96050.13;5084931;28;20236;-74
2022/11/18 04:37:54;;;;;;;18.17;11.03;;;;;;;7.64;90.87;96051.19;5088065;28;20248;-73
2022/11/18 04:40:21;;;;;;;14.63;9.93;;;;;;;7.55;90.51;96046.47;5086450;28;20187;-73
2022/11/18 04:42:48;;;;;;;16.40;10.13;;;;;;;7.38;89.82;96057.59;5087682;28;20204;-73
2022/11/18 04:45:15;;;;;;;21.27;10.60;;;;;;;7.49;90.23;96051.94;5087166;28;20192;-73
2022/11/18 04:47:42;;;;;;;14.27;8.43;;;;;;;7.45;89.62;96042.69;5086788;28;20179;-73
2022/11/18 04:50:09;;;;;;;14.17;9.57;;;;;;;7.47;88.53;96048.59;5086333;28;20212;-73
2022/11/18 04:52:36;;;;;;;10.83;8.07;;;;;;;7.55;88.71;96051.63;5084384;28;20293;-74
2022/11/18 04:55:03;;;;;;;12.47;8.40;;;;;;;7.59;88.20;96050.56;5087919;28;20688;-74
2022/11/18 04:57:30;;;;;;;16.30;10.93;;;;;;;7.61;87.40;96055.63;5084828;28;20210;-73
2022/11/18 04:59:57;;;;;;;18.50;11.17;;;;;;;7.50;86.99;96042.47;5087625;28;20192;-74
2022/11/18 05:02:24;;;;;;;21.10;12.93;;;;;;;7.45;86.96;96053.00;5079897;28;20195;-74
2022/11/18 05:04:51;;;;;;;16.23;11.73;;;;;;;7.48;87.93;96054.59;5086991;28;20196;-73
2022/11/18 05:07:18;;;;;;;16.30;12.10;;;;;;;7.60;87.08;96054.81;5086297;28;20202;-73
2022/11/18 05:09:45;;;;;;;18.97;11.97;;;;;;;7.40;85.43;96057.53;5085063;28;20234;-74
2022/11/18 05:14:59;;;;;;;17.57;11.90;;;;;;;6.86;86.97;96049.91;5065595;28;20191;-73
2022/11/18 05:17:28;;;;;;;21.50;11.83;;;;;;;6.83;86.88;96070.59;5065954;28;20188;-74
2022/11/18 05:19:55;;;;;;;18.37;12.73;;;;;;;6.97;86.80;96068.22;5066843;28;20192;-74
2022/11/18 05:22:22;;;;;;;19.60;14.07;;;;;;;6.86;86.04;96044.75;5066317;28;20213;-74
2022/11/18 05:24:49;;;;;;;20.97;14.07;;;;;;;6.99;86.88;96062.09;5067667;28;20278;-74
2022/11/18 05:27:16;;;;;;;20.33;14.10;;;;;;;7.01;87.00;96060.28;5069623;28;20190;-74
2022/11/18 05:29:43;;;;;;;19.10;11.20;;;;;;;6.88;86.52;96069.50;5070642;28;20208;-73
2022/11/18 05:32:10;;;;;;;19.97;14.20;;;;;;;6.76;86.27;96046.09;5067212;28;20794;-75
2022/11/18 05:34:39;;;;;;;24.57;14.40;;;;;;;6.82;87.21;96074.09;5069445;28;20235;-73
2022/11/18 05:37:06;;;;;;;34.87;15.07;;;;;;;6.52;88.47;96074.59;5068722;28;20289;-74
2022/11/18 05:39:34;;;;;;;27.47;15.47;;;;;;;6.48;89.13;96064.50;5070231;28;20831;-77
2022/11/18 05:44:50;;;;;;;27.13;16.17;;;;;;;6.76;88.79;96076.97;5069031;28;20186;-74
2022/11/18 05:47:24;;;;;;;42.83;15.53;;;;;;;6.87;88.98;96077.28;5070580;28;20672;-74
2022/11/18 05:49:51;;;;;;;24.20;15.63;;;;;;;6.89;88.68;96076.31;5084699;28;20183;-74
2022/11/18 05:52:18;;;;;;;28.83;16.77;;;;;;;7.01;88.40;96074.88;5070050;28;20182;-73
2022/11/18 05:54:49;;;;;;;40.13;16.33;;;;;;;6.91;88.16;96083.94;5068625;28;20197;-73
2022/11/18 05:57:16;;;;;;;55.23;16.90;;;;;;;6.87;89.48;96092.72;5067463;28;20608;-75
2022/11/18 05:59:42;;;;;;;65.70;17.10;;;;;;;6.67;89.14;96065.34;5068857;28;20199;-73
2022/11/18 06:02:23;;;;;;;48.67;16.10;;;;;;;6.55;90.48;96077.00;5067979;28;20195;-74
2022/11/18 06:04:56;;;;;;;77.50;16.37;;;;;;;6.37;93.08;96079.56;5070018;28;20191;-73
2022/11/18 06:07:33;;;;;;;46.67;16.73;;;;;;;6.30;95.12;96065.34;5069112;28;20178;-74
2022/11/18 06:10:01;;;;;;;26.00;13.27;;;;;;;6.61;95.31;96075.94;5069044;28;20218;-74
2022/11/18 06:12:40;;;;;;;19.77;11.97;;;;;;;6.76;95.28;96082.91;5070322;28;20195;-74
2022/11/18 06:15:21;;;;;;;19.97;12.93;;;;;;;7.07;94.83;96077.16;5068570;28;20179;-75
2022/11/18 06:17:56;;;;;;;22.67;13.27;;;;;;;7.22;93.55;96073.88;5069017;28;20284;-74
2022/11/18 06:20:23;;;;;;;22.03;14.60;;;;;;;7.37;91.92;96062.84;5069255;28;20189;-74
2022/11/18 06:22:53;;;;;;;29.83;15.93;;;;;;;7.39;90.81;96071.31;5069275;28;20673;-74
2022/11/18 06:25:21;;;;;;;25.47;15.37;;;;;;;7.40;90.36;96062.69;5102637;28;20218;-73
2022/11/18 06:27:50;;;;;;;20.30;12.87;;;;;;;7.17;90.51;96035.47;5068398;28;20190;-75
2022/11/18 06:30:17;;;;;;;21.63;11.57;;;;;;;7.42;91.15;96075.50;5068463;28;20241;-74
2022/11/18 06:32:44;;;;;;;15.90;10.50;;;;;;;7.53;91.54;96076.63;5068631;28;20206;-74
2022/11/18 06:35:12;;;;;;;19.17;12.33;;;;;;;7.74;90.49;96070.41;5069741;28;20260;-74
2022/11/18 06:37:39;;;;;;;21.40;12.07;;;;;;;7.84;89.75;96083.66;5068228;28;20202;-74
2022/11/18 06:40:06;;;;;;;18.00;11.80;;;;;;;7.80;89.49;96084.72;5051197;28;20201;-75
2022/11/18 06:45:20;;;;;;;12.17;8.83;;;;;;;7.93;89.85;96083.22;5067831;28;20200;-74
2022/11/18 06:47:47;;;;;;;10.63;8.00;;;;;;;7.93;89.52;96096.91;5069404;28;20238;-75
2022/11/18 06:50:15;;;;;;;14.17;9.30;;;;;;;8.06;89.20;96077.34;5067561;28;20666;-74
2022/11/18 06:52:42;;;;;;;11.30;7.90;;;;;;;8.03;89.70;96079.25;5069312;28;20236;-74
2022/11/18 06:55:09;;;;;;;12.97;8.30;;;;;;;8.02;90.08;96067.25;5067369;28;20187;-75
2022/11/18 06:57:38;;;;;;;13.40;9.33;;;;;;;8.12;90.58;96081.34;5068375;28;20204;-74
2022/11/18 07:00:06;;;;;;;12.60;8.80;;;;;;;8.27;90.12;96062.53;5069144;28;20540;-74
2022/11/18 07:02:36;;;;;;;24.37;11.67;;;;;;;8.65;89.72;96071.69;5067189;28;20227;-75
2022/11/18 07:05:05;;;;;;;13.40;9.27;;;;;;;8.99;88.10;96075.81;5083958;28;20652;-74
2022/11/18 07:07:35;;;;;;;26.67;14.70;;;;;;;9.24;87.17;96073.56;5067266;28;20189;-75
2022/11/18 07:10:08;;;;;;;26.13;11.70;;;;;;;9.54;85.94;96064.06;5068860;28;20284;-74
2022/11/18 07:12:35;;;;;;;18.93;10.77;;;;;;;9.77;85.32;96068.75;5068425;28;20196;-75
2022/11/18 07:15:02;;;;;;;17.30;9.87;;;;;;;9.94;84.60;96057.41;5083336;28;20193;-75
2022/11/18 07:17:30;;;;;;;17.80;8.53;;;;;;;9.90;84.35;96047.34;5067671;28;20193;-75
2022/11/18 07:19:57;;;;;;;12.53;8.67;;;;;;;9.88;84.91;96049.19;5067309;28;20238;-75
2022/11/18 07:22:24;;;;;;;15.23;9.20;;;;;;;10.07;84.76;96055.78;5068674;28;20690;-75
2022/11/18 07:24:51;;;;;;;15.67;9.60;;;;;;;10.23;85.06;96050.53;5099466;28;20694;-74
2022/11/18 07:27:18;;;;;;;14.33;8.37;;;;;;;10.38;84.77;96054.81;5068457;28;20335;-74
2022/11/18 07:32:49;;;;;;;13.30;8.57;;;;;;;10.64;83.78;96057.47;5066499;28;20284;-75
2022/11/18 07:35:18;;;;;;;12.00;8.13;;;;;;;10.54;83.99;96037.41;5067522;28;20297;-75
2022/11/18 07:37:45;;;;;;;12.90;8.57;;;;;;;10.87;83.75;96053.44;5067043;28;20193;-74
2022/11/18 07:40:12;;;;;;;13.40;8.13;;;;;;;10.99;83.23;96055.25;5066839;28;20690;-74
2022/11/18 07:42:41;;;;;;;12.43;8.00;;;;;;;10.91;83.43;96047.13;5065753;28;20181;-75
2022/11/18 07:45:22;;;;;;;10.43;8.27;;;;;;;10.92;84.15;96037.63;5067215;28;20267;-74
2022/11/18 07:47:50;;;;;;;11.03;9.13;;;;;;;11.02;83.66;96051.66;5067956;28;20193;-74
2022/11/18 07:50:18;;;;;;;15.13;9.73;;;;;;;11.10;83.33;96045.06;5066491;28;20197;-74
2022/11/18 07:52:45;;;;;;;15.27;8.73;;;;;;;11.00;83.46;96007.72;5067660;28;20185;-75
2022/11/18 07:55:12;;;;;;;11.63;8.83;;;;;;;11.03;84.06;96028.22;5066157;28;20234;-75
2022/11/18 07:57:41;;;;;;;21.83;13.37;;;;;;;11.29;83.21;96042.94;5067639;28;20186;-73
2022/11/18 08:00:09;;;;;;;12.07;8.87;;;;;;;11.45;82.95;96046.22;5065329;28;20665;-74
2022/11/18 08:02:38;;;;;;;11.07;8.43;;;;;;;11.60;82.34;96054.75;5065313;28;20196;-76
2022/11/18 08:05:06;;;;;;;12.47;9.07;;;;;;;11.68;81.79;96044.75;5068325;28;20281;-74
2022/11/18 08:07:40;;;;;;;14.10;8.83;;;;;;;11.80;81.95;96053.47;5082336;28;20291;-74
2022/11/18 08:10:09;;;;;;;14.03;10.87;;;;;;;12.02;80.69;96048.50;5067794;28;20536;-75
2022/11/18 08:12:36;;;;;;;13.20;9.87;;;;;;;12.01;80.91;96044.25;5081499;28;20308;-75
2022/11/18 08:15:03;;;;;;;20.07;12.90;;;;;;;12.14;80.34;96039.88;5066896;28;20200;-75
2022/11/18 08:17:31;;;;;;;18.30;11.63;;;;;;;12.27;79.77;96040.72;5066007;28;20194;-75
2022/11/18 08:19:58;;;;;;;16.07;10.73;;;;;;;12.39;79.04;96034.69;5066751;28;20276;-75
2022/11/18 08:22:25;;;;;;;16.40;10.47;;;;;;;12.59;78.69;96041.13;5068467;28;20207;-74
2022/11/18 08:24:52;;;;;;;14.43;10.17;;;;;;;12.60;78.44;96041.00;5082083;28;20677;-76
2022/11/18 08:27:20;;;;;;;19.43;10.53;;;;;;;12.56;79.18;96036.97;5066228;28;20251;-75
2022/11/18 08:29:47;;;;;;;14.80;11.47;;;;;;;12.53;78.65;96029.34;5064012;28;20188;-74
2022/11/18 08:32:14;;;;;;;22.43;13.67;;;;;;;12.71;78.63;96011.69;5065648;28;20217;-74
2022/11/18 08:34:41;;;;;;;20.20;12.33;;;;;;;12.93;78.12;96024.81;5065932;28;20392;-75
2022/11/18 08:37:08;;;;;;;17.17;10.83;;;;;;;12.95;77.83;96018.56;5066739;28;20930;-74
2022/11/18 08:39:37;;;;;;;20.30;11.67;;;;;;;13.16;77.46;96018.00;5068465;28;20234;-79
2022/11/18 08:42:12;;;;;;;15.73;10.73;;;;;;;13.21;76.83;96028.91;5065670;28;20670;-77
2022/11/18 08:44:39;;;;;;;21.87;12.30;;;;;;;13.25;77.10;96031.13;5067595;28;20209;-74
2022/11/18 08:47:07;;;;;;;19.47;13.03;;;;;;;13.28;77.57;96024.91;5067151;28;20589;-74
2022/11/18 08:49:35;;;;;;;19.23;12.20;;;;;;;13.27;77.40;96007.66;5099963;28;20198;-75
2022/11/18 08:52:02;;;;;;;18.23;11.37;;;;;;;13.43;77.57;96027.22;5048376;28;20246;-75
2022/11/18 08:54:40;;;;;;;17.57;10.23;;;;;;;13.43;76.88;96023.78;5049773;28;20598;-77
2022/11/18 08:57:08;;;;;;;17.43;11.43;;;;;;;13.51;76.66;96024.06;5065515;28;20203;-75
2022/11/18 08:59:37;;;;;;;16.50;10.17;;;;;;;13.67;77.02;96017.63;5063644;28;20214;-75
2022/11/18 09:02:05;;;;;;;26.30;13.40;;;;;;;13.71;76.56;96023.41;5067279;28;20198;-75
2022/11/18 09:04:33;;;;;;;24.47;11.20;;;;;;;13.72;76.52;96015.47;5080295;28;20304;-75
2022/11/18 09:07:01;;;;;;;16.43;10.03;;;;;;;13.85;76.55;96012.78;5066496;28;20191;-76
2022/11/18 09:09:29;;;;;;;16.70;11.73;;;;;;;13.93;75.90;96012.25;5064259;28;20244;-76
2022/11/18 09:11:56;;;;;;;15.97;12.07;;;;;;;13.95;76.02;95995.53;5066228;28;20252;-75
2022/11/18 09:14:23;;;;;;;15.23;10.67;;;;;;;14.04;76.09;95996.63;5066568;28;20201;-74
2022/11/18 09:17:15;;;;;;;15.30;11.20;;;;;;;14.07;76.50;96002.44;5064970;28;20199;-76
2022/11/18 09:20:09;;;;;;;19.80;13.63;;;;;;;14.07;76.15;95997.25;5067371;28;20181;-74
2022/11/18 09:22:38;;;;;;;15.80;11.27;;;;;;;14.26;75.68;95989.66;5065540;28;20220;-75
2022/11/18 09:25:06;;;;;;;16.90;10.13;;;;;;;14.23;75.77;95976.88;5065450;28;20200;-76
2022/11/18 09:27:33;;;;;;;16.77;11.13;;;;;;;14.22;75.53;95990.03;5065572;28;20238;-75
2022/11/18 09:30:03;;;;;;;19.27;11.40;;;;;;;14.37;75.70;95994.91;5064436;28;20195;-75
2022/11/18 09:32:32;;;;;;;10.67;7.97;;;;;;;14.25;75.16;95982.81;5065242;28;21116;-75
2022/11/18 09:35:04;;;;;;;10.73;8.03;;;;;;;14.48;74.33;95979.28;5079671;28;20711;-79
2022/11/18 09:37:34;;;;;;;12.40;8.40;;;;;;;14.53;74.44;95987.56;5066363;28;20199;-76
2022/11/18 09:40:18;;;;;;;17.67;11.13;;;;;;;14.65;74.73;95991.78;5035196;28;20717;-75
2022/11/18 09:43:18;;;;;;;21.53;12.43;;;;;;;14.82;74.68;95987.06;5064620;28;20199;-75
2022/11/18 09:46:00;;;;;;;13.30;10.23;;;;;;;14.71;74.22;95995.72;5066736;28;20193;-77
2022/11/18 09:51:40;;;;;;;10.40;7.67;;;;;;;14.24;74.60;95962.91;5079726;28;20232;-75
2022/11/18 09:54:24;;;;;;;8.80;6.87;;;;;;;14.35;74.63;95962.94;5066003;28;20245;-74
2022/11/18 09:56:54;;;;;;;11.57;6.80;;;;;;;14.63;73.94;95946.00;5079558;28;20195;-75
2022/11/18 09:59:26;;;;;;;7.03;5.33;;;;;;;14.65;72.95;95947.50;5081465;28;20246;-75
2022/11/18 10:02:47;;;;;;;11.00;7.33;;;;;;;14.69;73.73;95929.88;5066379;28;20764;-77
2022/11/18 10:05:53;;;;;;;8.57;6.90;;;;;;;14.60;74.08;95930.59;5024079;28;20763;-74
2022/11/18 10:08:29;;;;;;;9.93;7.87;;;;;;;14.72;73.34;95923.56;5065323;28;20198;-74
2022/11/18 10:12:01;;;;;;;10.47;6.23;;;;;;;14.55;74.05;95930.94;5065639;28;20214;-74
2022/11/18 10:14:54;;;;;;;8.43;6.13;;;;;;;14.76;74.49;95935.38;5083803;28;20202;-75
2022/11/18 10:17:57;;;;;;;11.83;7.13;;;;;;;14.84;74.70;95933.03;5068070;28;20186;-74
2022/11/18 10:20:37;;;;;;;7.67;5.30;;;;;;;14.80;73.38;95922.00;5067515;28;20580;-75
2022/11/18 10:23:27;;;;;;;10.27;6.63;;;;;;;14.94;73.47;95913.88;5067749;28;20242;-75
2022/11/18 10:25:55;;;;;;;5.90;4.50;;;;;;;14.90;72.78;95896.84;5068628;28;20456;-75
2022/11/18 10:28:28;;;;;;;6.60;5.33;;;;;;;15.16;72.26;95905.16;5068588;28;20194;-76
2022/11/18 10:31:07;;;;;;;10.17;6.03;;;;;;;15.02;72.58;95895.03;5065653;28;20205;-75
2022/11/18 10:33:36;;;;;;;8.30;6.17;;;;;;;15.09;72.95;95894.41;5068714;28;20908;-74
2022/11/18 10:36:26;;;;;;;8.30;5.90;;;;;;;15.11;73.03;95897.72;5082177;28;20236;-75
2022/11/18 10:39:13;;;;;;;8.40;5.00;;;;;;;15.26;72.12;95872.16;5068438;28;20285;-75
2022/11/18 10:41:47;;;;;;;6.23;4.70;;;;;;;15.33;71.70;95878.53;5084768;28;20234;-77
2022/11/18 10:44:35;;;;;;;10.67;6.67;;;;;;;15.54;71.54;95861.09;5067279;28;20766;-75
2022/11/18 10:47:30;;;;;;;7.37;5.13;;;;;;;15.48;72.57;95871.25;5068128;28;20185;-75
2022/11/18 10:50:21;;;;;;;10.57;6.80;;;;;;;15.59;72.41;95858.94;5064206;28;20197;-75
2022/11/18 10:52:52;;;;;;;6.70;5.97;;;;;;;15.51;72.08;95871.81;5081782;28;20219;-76
2022/11/18 10:55:22;;;;;;;10.87;6.90;;;;;;;15.35;72.53;95832.28;5068081;28;20188;-76
2022/11/18 10:58:08;;;;;;;9.27;6.70;;;;;;;15.62;72.57;95850.84;5067088;28;20266;-75
2022/11/18 11:00:48;;;;;;;12.07;6.90;;;;;;;15.78;71.86;95843.38;5067538;28;20283;-75
2022/11/18 11:03:21;;;;;;;7.63;4.43;;;;;;;15.56;72.64;95853.97;5066794;28;20753;-75
2022/11/18 11:06:19;;;;;;;8.93;6.00;;;;;;;15.73;71.82;95845.53;5066535;28;20189;-74
2022/11/18 11:09:02;;;;;;;8.63;5.57;;;;;;;15.71;72.38;95830.97;5064072;28;20647;-75
2022/11/18 11:11:44;;;;;;;7.70;4.83;;;;;;;15.61;72.24;95838.75;5083242;28;20240;-76
2022/11/18 11:14:51;;;;;;;9.23;6.63;;;;;;;15.91;71.77;95843.16;5065030;28;20268;-75
2022/11/18 11:17:44;;;;;;;9.13;6.33;;;;;;;15.98;70.90;95833.81;5061022;28;20189;-76
2022/11/18 11:20:23;;;;;;;10.47;6.10;;;;;;;16.09;71.68;95837.16;5065893;28;20197;-76
2022/11/18 11:22:51;;;;;;;12.37;8.00;;;;;;;16.14;72.00;95848.03;5080782;28;20197;-75
2022/11/18 11:25:44;;;;;;;10.00;7.00;;;;;;;16.16;72.83;95838.28;5082954;28;20190;-74
2022/11/18 11:28:44;;;;;;;9.63;7.43;;;;;;;15.99;73.27;95812.00;5082425;28;20193;-75
2022/11/18 11:31:42;;;;;;;11.10;7.13;;;;;;;16.17;73.29;95842.56;5065129;28;20208;-75
2022/11/18 11:34:22;;;;;;;9.77;6.87;;;;;;;16.12;72.68;95836.06;5083514;28;20189;-74
2022/11/18 11:37:03;;;;;;;12.83;7.90;;;;;;;16.25;72.79;95837.50;5066138;28;20193;-76
2022/11/18 11:39:53;;;;;;;10.60;8.30;;;;;;;16.26;72.55;95836.50;5082737;28;20201;-75
2022/11/18 11:42:55;;;;;;;10.57;7.30;;;;;;;16.22;72.90;95845.59;5066799;28;20204;-75
2022/11/18 11:45:39;;;;;;;10.90;6.73;;;;;;;16.19;72.88;95827.56;5065788;28;20195;-74
2022/11/18 11:48:26;;;;;;;11.10;6.73;;;;;;;16.16;73.20;95832.22;5082794;28;20196;-74
2022/11/18 11:51:16;;;;;;;15.60;7.63;;;;;;;16.35;72.90;95821.00;5066646;28;20196;-76
2022/11/18 11:53:44;;;;;;;10.60;7.47;;;;;;;16.37;72.75;95819.06;5063305;28;20201;-75
2022/11/18 11:56:32;;;;;;;11.80;7.33;;;;;;;16.47;72.60;95832.97;5067977;28;20204;-74
2022/11/18 11:59:29;;;;;;;11.43;7.07;;;;;;;16.16;72.74;95820.00;5067029;28;20185;-74
2022/11/18 12:02:21;;;;;;;10.33;7.53;;;;;;;16.35;72.79;95821.00;5066186;28;20204;-75
2022/11/18 12:04:57;;;;;;;10.87;7.23;;;;;;;16.34;72.48;95828.03;5083398;28;20190;-75
2022/11/18 12:07:32;;;;;;;12.20;7.30;;;;;;;16.36;72.60;95813.03;5066553;28;20256;-75
2022/11/18 12:10:29;;;;;;;11.23;7.87;;;;;;;16.54;71.68;95821.91;5066579;28;20333;-75
2022/11/18 12:13:17;;;;;;;10.10;7.00;;;;;;;16.35;72.53;95829.66;5065603;28;20229;-75
2022/11/18 12:16:21;;;;;;;11.10;7.17;;;;;;;16.31;72.59;95825.66;5065643;28;20192;-75
2022/11/18 12:19:06;;;;;;;10.77;7.10;;;;;;;16.14;72.50;95828.91;5066718;28;20679;-76